createdAt,value
2022-07-30T00:00:11.100Z,22.87
2022-07-30T00:02:41.958Z,23.02
2022-07-30T00:05:09.509Z,22.97
2022-07-30T00:07:36.072Z,22.96
2022-07-30T00:10:04.462Z,22.90
2022-07-30T00:12:37.074Z,23.00
2022-07-30T00:15:03.733Z,23.00
2022-07-30T00:17:30.224Z,23.03
2022-07-30T00:19:58.523Z,22.91
2022-07-30T00:22:25.786Z,22.66
2022-07-30T00:24:52.599Z,22.66
2022-07-30T00:27:19.268Z,22.65
2022-07-30T00:29:45.718Z,22.59
2022-07-30T00:32:12.171Z,22.49
2022-07-30T00:34:38.652Z,22.29
2022-07-30T00:37:05.089Z,22.26
2022-07-30T00:39:31.564Z,22.33
2022-07-30T00:42:00.523Z,22.50
2022-07-30T00:44:27.982Z,22.26
2022-07-30T00:46:55.463Z,22.45
2022-07-30T00:49:22.751Z,22.34
2022-07-30T00:51:49.398Z,22.29
2022-07-30T00:54:15.987Z,22.28
2022-07-30T00:56:42.949Z,22.36
2022-07-30T00:59:09.799Z,22.38
2022-07-30T01:01:36.574Z,22.29
2022-07-30T01:04:03.160Z,22.15
2022-07-30T01:06:29.689Z,22.21
2022-07-30T01:08:56.261Z,22.21
2022-07-30T01:11:27.041Z,22.31
2022-07-30T01:13:53.499Z,22.24
2022-07-30T01:16:19.993Z,22.01
2022-07-30T01:19:04.995Z,21.93
2022-07-30T01:21:40.334Z,22.02
2022-07-30T01:24:27.815Z,21.88
2022-07-30T01:26:54.654Z,22.01
2022-07-30T01:29:21.594Z,22.10
2022-07-30T01:31:48.735Z,22.01
2022-07-30T01:34:16.359Z,21.99
2022-07-30T01:36:45.166Z,22.05
2022-07-30T01:39:12.552Z,21.85
2022-07-30T01:41:39.722Z,21.97
2022-07-30T01:44:06.659Z,22.01
2022-07-30T01:46:33.710Z,22.15
2022-07-30T01:49:01.204Z,22.04
2022-07-30T01:51:33.277Z,21.93
2022-07-30T01:54:03.813Z,21.84
2022-07-30T01:56:31.049Z,21.77
2022-07-30T01:59:02.745Z,21.70
2022-07-30T02:01:29.413Z,21.78
2022-07-30T02:03:56.293Z,21.74
2022-07-30T02:06:26.926Z,21.67
2022-07-30T02:08:55.642Z,21.60
2022-07-30T02:11:40.695Z,21.78
2022-07-30T02:14:16.469Z,21.56
2022-07-30T02:16:45.667Z,21.59
2022-07-30T02:19:15.438Z,21.27
2022-07-30T02:21:53.248Z,21.36
2022-07-30T02:24:23.006Z,21.24
2022-07-30T02:26:52.086Z,21.33
2022-07-30T02:29:19.803Z,21.26
2022-07-30T02:31:46.722Z,21.44
2022-07-30T02:34:14.231Z,21.39
2022-07-30T02:36:42.015Z,21.44
2022-07-30T02:39:08.634Z,21.40
2022-07-30T02:41:36.606Z,21.32
2022-07-30T02:44:03.561Z,21.29
2022-07-30T02:46:32.276Z,21.06
2022-07-30T02:48:59.253Z,21.15
2022-07-30T02:51:27.580Z,21.24
2022-07-30T02:53:54.715Z,21.16
2022-07-30T02:56:22.470Z,21.20
2022-07-30T02:58:49.435Z,21.21
2022-07-30T03:01:16.787Z,21.15
2022-07-30T03:03:43.870Z,21.24
2022-07-30T03:06:14.021Z,21.10
2022-07-30T03:08:41.891Z,21.18
2022-07-30T03:11:10.819Z,21.10
2022-07-30T03:13:37.279Z,21.11
2022-07-30T03:16:05.469Z,21.00
2022-07-30T03:18:34.552Z,20.99
2022-07-30T03:21:01.553Z,20.86
2022-07-30T03:23:28.952Z,20.94
2022-07-30T03:26:01.119Z,20.91
2022-07-30T03:28:31.361Z,20.85
2022-07-30T03:30:58.570Z,20.87
2022-07-30T03:33:38.124Z,20.80
2022-07-30T03:36:06.593Z,20.94
2022-07-30T03:38:33.157Z,20.88
2022-07-30T03:40:59.943Z,20.81
2022-07-30T03:43:33.589Z,20.77
2022-07-30T03:46:01.743Z,20.85
2022-07-30T03:48:28.474Z,20.85
2022-07-30T03:50:55.228Z,20.71
2022-07-30T03:53:24.905Z,20.80
2022-07-30T03:55:52.722Z,20.89
2022-07-30T03:58:19.248Z,20.68
2022-07-30T04:00:50.658Z,20.53
2022-07-30T04:03:27.801Z,20.71
2022-07-30T04:05:54.447Z,20.51
2022-07-30T04:08:21.183Z,20.72
2022-07-30T04:10:48.864Z,20.76
2022-07-30T04:13:15.843Z,20.84
2022-07-30T04:16:38.757Z,20.73
2022-07-30T04:18:40.644Z,20.93
2022-07-30T04:21:16.991Z,20.96
2022-07-30T04:24:04.692Z,20.98
2022-07-30T04:26:32.910Z,21.08
2022-07-30T04:29:00.117Z,21.09
2022-07-30T04:31:28.147Z,21.10
2022-07-30T04:33:54.917Z,21.14
2022-07-30T04:36:21.445Z,21.09
2022-07-30T04:38:47.898Z,21.09
2022-07-30T04:41:14.403Z,21.22
2022-07-30T04:43:40.844Z,21.12
2022-07-30T04:46:07.314Z,21.24
2022-07-30T04:48:33.830Z,21.24
2022-07-30T04:51:02.275Z,21.33
2022-07-30T04:53:29.379Z,21.36
2022-07-30T04:55:58.226Z,21.52
2022-07-30T04:58:24.991Z,21.59
2022-07-30T05:00:53.108Z,21.70
2022-07-30T05:03:20.544Z,21.83
2022-07-30T05:05:48.111Z,21.90
2022-07-30T05:08:14.649Z,21.99
2022-07-30T05:10:41.230Z,22.13
2022-07-30T05:13:13.167Z,22.32
2022-07-30T05:15:40.089Z,22.42
2022-07-30T05:18:06.938Z,22.73
2022-07-30T05:20:33.506Z,22.92
2022-07-30T05:23:00.192Z,23.01
2022-07-30T05:25:26.631Z,23.13
2022-07-30T05:27:53.158Z,23.22
2022-07-30T05:30:19.753Z,23.22
2022-07-30T05:32:52.620Z,23.44
2022-07-30T05:35:19.695Z,23.44
2022-07-30T05:37:46.138Z,23.72
2022-07-30T05:40:12.605Z,23.89
2022-07-30T05:42:39.041Z,24.00
2022-07-30T05:45:06.647Z,24.04
2022-07-30T05:47:33.144Z,24.06
2022-07-30T05:50:04.334Z,23.99
2022-07-30T05:52:31.400Z,23.97
2022-07-30T05:54:57.823Z,23.94
2022-07-30T05:57:24.550Z,23.87
2022-07-30T05:59:50.979Z,23.85
2022-07-30T06:02:17.481Z,23.80
2022-07-30T06:04:46.122Z,23.66
2022-07-30T06:07:12.946Z,23.60
2022-07-30T06:09:39.403Z,23.38
2022-07-30T06:12:05.977Z,23.28
2022-07-30T06:14:32.453Z,23.17
2022-07-30T06:16:59.209Z,23.23
2022-07-30T06:19:26.297Z,23.32
2022-07-30T06:22:05.424Z,23.27
2022-07-30T06:24:33.540Z,23.24
2022-07-30T06:27:00.398Z,23.21
2022-07-30T06:29:27.064Z,23.24
2022-07-30T06:31:53.609Z,23.28
2022-07-30T06:34:20.213Z,23.52
2022-07-30T06:36:46.732Z,23.90
2022-07-30T06:39:13.161Z,24.23
2022-07-30T06:41:40.882Z,24.43
2022-07-30T06:44:07.362Z,24.62
2022-07-30T06:46:33.935Z,24.67
2022-07-30T06:49:00.419Z,24.77
2022-07-30T06:51:27.367Z,24.61
2022-07-30T06:53:53.780Z,24.40
2022-07-30T06:56:20.244Z,24.48
2022-07-30T06:58:46.698Z,25.09
2022-07-30T07:01:13.238Z,25.21
2022-07-30T07:03:40.743Z,25.33
2022-07-30T07:06:07.537Z,25.59
2022-07-30T07:08:36.375Z,25.72
2022-07-30T07:11:02.837Z,25.80
2022-07-30T07:13:29.300Z,25.97
2022-07-30T07:15:57.185Z,26.18
2022-07-30T07:18:23.711Z,26.80
2022-07-30T07:20:50.144Z,27.38
2022-07-30T07:23:16.733Z,27.87
2022-07-30T07:25:47.249Z,28.39
2022-07-30T07:28:13.856Z,28.56
2022-07-30T07:30:41.536Z,28.91
2022-07-30T07:33:08.456Z,28.68
2022-07-30T07:35:41.216Z,28.76
2022-07-30T07:38:19.449Z,29.05
2022-07-30T07:40:46.426Z,29.48
2022-07-30T07:43:13.468Z,29.69
2022-07-30T07:45:41.186Z,29.77
2022-07-30T07:48:07.673Z,29.77
2022-07-30T07:50:34.170Z,29.32
2022-07-30T07:53:00.794Z,28.85
2022-07-30T07:55:27.391Z,28.47
2022-07-30T07:57:54.089Z,28.38
2022-07-30T08:00:21.119Z,28.03
2022-07-30T08:02:48.581Z,28.00
2022-07-30T08:05:15.361Z,27.99
2022-07-30T08:07:42.774Z,27.93
2022-07-30T08:10:11.072Z,27.90
2022-07-30T08:12:37.611Z,27.86
2022-07-30T08:15:04.444Z,27.86
2022-07-30T08:17:31.128Z,27.81
2022-07-30T08:20:00.913Z,27.91
2022-07-30T08:22:27.811Z,28.16
2022-07-30T08:24:54.395Z,28.07
2022-07-30T08:27:20.837Z,27.85
2022-07-30T08:29:47.267Z,27.89
2022-07-30T08:32:13.730Z,28.11
2022-07-30T08:34:40.161Z,27.71
2022-07-30T08:37:06.800Z,27.69
2022-07-30T08:39:33.287Z,28.06
2022-07-30T08:42:03.198Z,28.46
2022-07-30T08:44:30.391Z,28.46
2022-07-30T08:46:58.602Z,28.72
2022-07-30T08:49:25.388Z,28.95
2022-07-30T08:51:52.595Z,28.86
2022-07-30T08:54:19.758Z,28.63
2022-07-30T08:56:47.290Z,28.70
2022-07-30T08:59:13.772Z,29.20
2022-07-30T09:01:40.194Z,29.34
2022-07-30T09:04:06.658Z,29.45
2022-07-30T09:06:33.151Z,29.16
2022-07-30T09:09:00.103Z,29.35
2022-07-30T09:11:26.639Z,29.56
2022-07-30T09:13:53.077Z,29.15
2022-07-30T09:16:24.767Z,28.94
2022-07-30T09:18:53.103Z,29.05
2022-07-30T09:21:23.412Z,28.89
2022-07-30T09:24:02.137Z,28.50
2022-07-30T09:26:29.680Z,28.37
2022-07-30T09:28:56.494Z,28.53
2022-07-30T09:31:23.657Z,28.84
2022-07-30T09:33:50.261Z,28.69
2022-07-30T09:36:18.080Z,28.43
2022-07-30T09:38:51.500Z,28.48
2022-07-30T09:41:39.328Z,28.67
2022-07-30T09:44:06.619Z,29.01
2022-07-30T09:46:45.370Z,28.97
2022-07-30T09:49:22.613Z,29.20
2022-07-30T09:51:56.596Z,29.08
2022-07-30T09:54:25.266Z,28.77
2022-07-30T09:57:26.643Z,29.11
2022-07-30T09:59:55.457Z,28.89
2022-07-30T10:02:29.122Z,29.21
2022-07-30T10:05:14.182Z,29.18
2022-07-30T10:07:48.380Z,29.10
2022-07-30T10:10:15.640Z,29.06
2022-07-30T10:12:45.192Z,29.46
2022-07-30T10:15:13.777Z,29.64
2022-07-30T10:17:41.761Z,29.84
2022-07-30T10:20:09.185Z,29.36
2022-07-30T10:22:35.987Z,29.67
2022-07-30T10:25:03.473Z,29.99
2022-07-30T10:27:32.201Z,30.43
2022-07-30T10:29:58.914Z,29.63
2022-07-30T10:32:30.873Z,29.78
2022-07-30T10:34:58.305Z,30.09
2022-07-30T10:37:26.224Z,29.88
2022-07-30T10:39:56.259Z,29.92
2022-07-30T10:43:03.155Z,30.16
2022-07-30T10:45:59.008Z,30.35
2022-07-30T10:48:32.630Z,30.71
2022-07-30T10:51:01.180Z,31.23
2022-07-30T10:53:45.795Z,29.89
2022-07-30T10:56:25.618Z,29.85
2022-07-30T10:59:11.544Z,30.01
2022-07-30T11:01:51.792Z,30.10
2022-07-30T11:04:25.695Z,30.54
2022-07-30T11:07:29.346Z,31.06
2022-07-30T11:10:09.431Z,31.45
2022-07-30T11:12:43.938Z,31.65
2022-07-30T11:15:18.644Z,31.64
2022-07-30T11:17:58.309Z,32.03
2022-07-30T11:20:25.518Z,32.06
2022-07-30T11:22:52.738Z,32.81
2022-07-30T11:25:22.567Z,31.88
2022-07-30T11:27:50.434Z,31.09
2022-07-30T11:30:17.178Z,30.99
2022-07-30T11:32:51.556Z,31.28
2022-07-30T11:35:34.759Z,31.53
2022-07-30T11:38:10.144Z,31.64
2022-07-30T11:40:50.933Z,31.69
2022-07-30T11:43:36.190Z,31.81
2022-07-30T11:46:17.896Z,31.94
2022-07-30T11:49:08.374Z,32.03
2022-07-30T11:51:45.291Z,31.64
2022-07-30T11:54:12.550Z,31.56
2022-07-30T11:56:48.812Z,31.27
2022-07-30T11:59:15.464Z,31.52
2022-07-30T12:01:43.328Z,31.75
2022-07-30T12:04:09.939Z,31.87
2022-07-30T12:06:46.327Z,31.71
2022-07-30T12:09:13.738Z,31.29
2022-07-30T12:11:40.190Z,31.20
2022-07-30T12:14:06.824Z,31.27
2022-07-30T12:16:33.663Z,31.30
2022-07-30T12:19:06.810Z,31.52
2022-07-30T12:21:36.394Z,32.00
2022-07-30T12:24:07.554Z,31.82
2022-07-30T12:26:34.856Z,31.30
2022-07-30T12:29:05.010Z,31.15
2022-07-30T12:31:33.555Z,31.13
2022-07-30T12:34:00.662Z,31.14
2022-07-30T12:36:32.394Z,31.17
2022-07-30T12:38:59.846Z,31.36
2022-07-30T12:41:49.462Z,31.26
2022-07-30T12:44:42.153Z,31.67
2022-07-30T12:47:21.996Z,31.65
2022-07-30T12:49:50.083Z,31.42
2022-07-30T12:52:28.670Z,31.47
2022-07-30T12:55:12.669Z,30.06
2022-07-30T12:57:52.203Z,30.16
2022-07-30T13:00:18.941Z,30.32
2022-07-30T13:02:45.455Z,30.29
2022-07-30T13:05:12.225Z,30.62
2022-07-30T13:07:58.240Z,30.65
2022-07-30T13:10:30.079Z,30.81
2022-07-30T13:12:58.384Z,30.88
2022-07-30T13:15:24.931Z,31.09
2022-07-30T13:17:51.512Z,31.28
2022-07-30T13:20:18.173Z,30.98
2022-07-30T13:22:44.780Z,30.67
2022-07-30T13:25:11.618Z,30.62
2022-07-30T13:27:38.299Z,30.52
2022-07-30T13:30:05.585Z,30.65
2022-07-30T13:32:32.892Z,30.65
2022-07-30T13:35:01.582Z,30.46
2022-07-30T13:37:38.359Z,30.53
2022-07-30T13:40:06.120Z,30.63
2022-07-30T13:42:32.687Z,30.66
2022-07-30T13:44:59.184Z,30.54
2022-07-30T13:47:25.616Z,30.63
2022-07-30T13:49:52.109Z,29.93
2022-07-30T13:52:18.829Z,30.02
2022-07-30T13:54:45.289Z,29.88
2022-07-30T13:57:12.161Z,29.72
2022-07-30T13:59:38.619Z,29.83
2022-07-30T14:02:05.197Z,29.79
2022-07-30T14:04:31.845Z,29.67
2022-07-30T14:06:58.429Z,29.75
2022-07-30T14:09:25.011Z,29.78
2022-07-30T14:11:51.926Z,29.63
2022-07-30T14:14:18.494Z,29.44
2022-07-30T14:16:46.910Z,28.91
2022-07-30T14:19:24.001Z,28.39
2022-07-30T14:21:52.737Z,28.75
2022-07-30T14:24:19.966Z,28.90
2022-07-30T14:26:46.470Z,29.00
2022-07-30T14:29:12.935Z,28.89
2022-07-30T14:31:40.594Z,28.73
2022-07-30T14:34:07.053Z,29.13
2022-07-30T14:36:33.678Z,29.36
2022-07-30T14:39:01.961Z,29.47
2022-07-30T14:41:28.496Z,28.99
2022-07-30T14:43:55.000Z,29.53
2022-07-30T14:46:21.631Z,29.74
2022-07-30T14:48:48.227Z,30.06
2022-07-30T14:51:21.719Z,30.39
2022-07-30T14:53:52.069Z,30.65
2022-07-30T14:56:19.335Z,30.75
2022-07-30T14:58:46.256Z,30.62
2022-07-30T15:01:16.260Z,30.18
2022-07-30T15:03:46.257Z,29.99
2022-07-30T15:06:15.126Z,30.34
2022-07-30T15:08:42.636Z,31.12
2022-07-30T15:11:09.744Z,31.36
2022-07-30T15:13:36.999Z,31.28
2022-07-30T15:16:06.374Z,30.68
2022-07-30T15:18:33.585Z,30.75
2022-07-30T15:21:00.327Z,30.92
2022-07-30T15:23:26.811Z,30.73
2022-07-30T15:25:53.299Z,31.17
2022-07-30T15:28:19.859Z,30.80
2022-07-30T15:30:46.445Z,31.02
2022-07-30T15:33:12.879Z,30.40
2022-07-30T15:35:39.556Z,29.73
2022-07-30T15:38:06.050Z,30.53
2022-07-30T15:40:32.556Z,30.42
2022-07-30T15:42:59.020Z,30.05
2022-07-30T15:45:25.582Z,30.05
2022-07-30T15:47:54.470Z,30.13
2022-07-30T15:50:21.509Z,29.77
2022-07-30T15:52:48.143Z,29.51
2022-07-30T15:55:14.842Z,29.20
2022-07-30T15:57:41.959Z,29.31
2022-07-30T16:00:09.272Z,29.20
2022-07-30T16:02:36.552Z,29.53
2022-07-30T16:05:03.412Z,29.92
2022-07-30T16:07:30.236Z,29.77
2022-07-30T16:09:56.974Z,29.62
2022-07-30T16:12:23.491Z,29.69
2022-07-30T16:14:50.628Z,29.68
2022-07-30T16:17:17.219Z,29.71
2022-07-30T16:19:45.032Z,29.71
2022-07-30T16:22:12.463Z,29.72
2022-07-30T16:24:45.098Z,29.78
2022-07-30T16:27:13.635Z,29.96
2022-07-30T16:29:40.087Z,30.02
2022-07-30T16:32:06.543Z,29.89
2022-07-30T16:34:33.403Z,29.86
2022-07-30T16:36:59.980Z,29.84
2022-07-30T16:39:30.897Z,29.94
2022-07-30T16:41:57.408Z,29.96
2022-07-30T16:44:23.917Z,30.22
2022-07-30T16:46:50.346Z,30.45
2022-07-30T16:49:16.837Z,30.29
2022-07-30T16:51:43.931Z,30.40
2022-07-30T16:54:10.467Z,30.14
2022-07-30T16:56:36.959Z,30.03
2022-07-30T16:59:03.459Z,29.83
2022-07-30T17:01:31.107Z,28.16
2022-07-30T17:03:58.249Z,27.56
2022-07-30T17:06:24.952Z,27.04
2022-07-30T17:08:52.533Z,26.36
2022-07-30T17:11:46.954Z,25.85
2022-07-30T17:14:05.921Z,25.80
2022-07-30T17:16:32.653Z,25.74
2022-07-30T17:18:59.384Z,25.55
2022-07-30T17:21:25.984Z,25.38
2022-07-30T17:23:52.445Z,25.46
2022-07-30T17:26:19.311Z,25.49
2022-07-30T17:28:45.808Z,25.38
2022-07-30T17:31:12.700Z,24.92
2022-07-30T17:33:39.165Z,24.98
2022-07-30T17:36:08.410Z,24.81
2022-07-30T17:38:35.451Z,24.88
2022-07-30T17:41:02.281Z,25.19
2022-07-30T17:43:28.757Z,25.41
2022-07-30T17:45:55.238Z,25.01
2022-07-30T17:48:21.903Z,24.79
2022-07-30T17:50:48.421Z,24.58
2022-07-30T17:53:14.855Z,24.58
2022-07-30T17:55:57.400Z,24.46
2022-07-30T17:58:25.085Z,24.42
2022-07-30T18:00:51.950Z,24.40
2022-07-30T18:03:18.409Z,24.40
2022-07-30T18:05:45.001Z,24.53
2022-07-30T18:08:11.469Z,24.60
2022-07-30T18:10:38.030Z,24.59
2022-07-30T18:13:25.777Z,24.49
2022-07-30T18:15:52.633Z,24.64
2022-07-30T18:18:19.367Z,24.65
2022-07-30T18:20:48.015Z,24.82
2022-07-30T18:23:19.338Z,24.95
2022-07-30T18:25:51.649Z,24.69
2022-07-30T18:28:20.917Z,24.80
2022-07-30T18:30:47.920Z,24.66
2022-07-30T18:33:15.247Z,24.72
2022-07-30T18:35:42.539Z,25.08
2022-07-30T18:38:09.332Z,25.07
2022-07-30T18:40:35.990Z,24.99
2022-07-30T18:43:03.928Z,24.96
2022-07-30T18:45:35.263Z,24.99
2022-07-30T18:48:03.485Z,24.96
2022-07-30T18:50:30.182Z,25.02
2022-07-30T18:52:56.654Z,24.96
2022-07-30T18:55:23.152Z,24.92
2022-07-30T18:57:52.211Z,24.64
2022-07-30T19:00:34.053Z,24.53
2022-07-30T19:03:04.585Z,24.48
2022-07-30T19:05:31.691Z,24.42
2022-07-30T19:07:58.956Z,24.54
2022-07-30T19:10:26.608Z,24.51
2022-07-30T19:12:53.978Z,24.58
2022-07-30T19:15:20.618Z,24.67
2022-07-30T19:17:48.886Z,24.56
2022-07-30T19:20:15.542Z,24.52
2022-07-30T19:22:41.982Z,24.43
2022-07-30T19:25:09.033Z,24.42
2022-07-30T19:27:35.914Z,24.44
2022-07-30T19:30:03.609Z,24.27
2022-07-30T19:32:30.230Z,24.29
2022-07-30T19:34:56.678Z,24.15
2022-07-30T19:37:23.716Z,24.15
2022-07-30T19:40:05.457Z,24.06
2022-07-30T19:42:36.786Z,24.02
2022-07-30T19:45:11.405Z,24.07
2022-07-30T19:47:39.644Z,23.89
2022-07-30T19:50:10.013Z,23.78
2022-07-30T19:52:36.876Z,23.69
2022-07-30T19:55:18.434Z,23.83
2022-07-30T20:00:37.971Z,23.67
2022-07-30T20:03:04.773Z,23.75
2022-07-30T20:05:31.938Z,23.68
2022-07-30T20:08:18.439Z,23.66
2022-07-30T20:10:51.502Z,23.56
2022-07-30T20:13:17.970Z,23.48
2022-07-30T20:15:46.384Z,23.38
2022-07-30T20:18:12.983Z,23.42
2022-07-30T20:20:41.258Z,23.30
2022-07-30T20:23:08.077Z,23.01
2022-07-30T20:25:37.336Z,22.89
2022-07-30T20:28:04.740Z,23.02
2022-07-30T20:30:31.206Z,22.92
2022-07-30T20:32:57.685Z,23.03
2022-07-30T20:35:26.487Z,22.68
2022-07-30T20:37:55.690Z,22.56
2022-07-30T20:40:26.820Z,22.58
2022-07-30T20:42:54.268Z,22.60
2022-07-30T20:45:21.350Z,22.63
2022-07-30T20:47:55.332Z,22.50
2022-07-30T20:50:30.108Z,22.47
2022-07-30T20:52:57.576Z,22.25
2022-07-30T20:55:24.397Z,22.35
2022-07-30T20:58:00.320Z,22.24
2022-07-30T21:00:34.113Z,22.12
2022-07-30T21:03:05.637Z,22.25
2022-07-30T21:05:32.169Z,22.27
2022-07-30T21:08:08.427Z,22.20
2022-07-30T21:10:39.020Z,22.02
2022-07-30T21:13:07.660Z,22.24
2022-07-30T21:15:35.088Z,22.12
2022-07-30T21:18:03.336Z,22.20
2022-07-30T21:20:31.415Z,22.22
2022-07-30T21:23:11.325Z,22.37
2022-07-30T21:26:00.063Z,22.33
2022-07-30T21:28:28.091Z,22.31
2022-07-30T21:30:54.734Z,22.43
2022-07-30T21:33:23.902Z,22.32
2022-07-30T21:35:52.007Z,22.35
2022-07-30T21:38:19.626Z,22.31
2022-07-30T21:40:46.225Z,22.14
2022-07-30T21:43:14.020Z,22.40
2022-07-30T21:45:54.926Z,22.57
2022-07-30T21:48:22.109Z,22.54
2022-07-30T21:50:49.982Z,22.49
2022-07-30T21:53:16.401Z,22.13
2022-07-30T21:55:56.741Z,22.39
2022-07-30T21:58:26.493Z,22.46
2022-07-30T22:00:54.965Z,22.57
2022-07-30T22:04:02.970Z,22.66
2022-07-30T22:06:12.550Z,22.76
2022-07-30T22:08:39.415Z,22.77
2022-07-30T22:11:08.918Z,22.83
2022-07-30T22:13:35.829Z,22.79
2022-07-30T22:16:18.221Z,22.83
2022-07-30T22:18:45.513Z,22.75
2022-07-30T22:21:12.136Z,22.72
2022-07-30T22:23:41.026Z,22.70
2022-07-30T22:26:21.526Z,22.56
2022-07-30T22:28:47.965Z,22.46
2022-07-30T22:31:19.329Z,22.47
2022-07-30T22:33:45.808Z,22.45
2022-07-30T22:36:12.246Z,22.55
2022-07-30T22:38:39.212Z,22.54
2022-07-30T22:41:05.845Z,22.55
2022-07-30T22:43:33.331Z,22.61
2022-07-30T22:46:14.676Z,22.65
2022-07-30T22:48:53.760Z,22.60
2022-07-30T22:51:20.456Z,22.61
2022-07-30T22:54:03.563Z,22.58
2022-07-30T22:56:33.592Z,22.49
2022-07-30T22:59:00.176Z,22.53
2022-07-30T23:01:26.745Z,22.55
2022-07-30T23:03:53.156Z,22.50
2022-07-30T23:06:20.580Z,22.42
2022-07-30T23:08:47.287Z,22.30
2022-07-30T23:11:13.751Z,22.19
2022-07-30T23:12:15.502Z,23.87
2022-07-30T23:13:40.352Z,22.27
2022-07-30T23:16:06.921Z,22.25
2022-07-30T23:18:35.077Z,22.21
2022-07-30T23:21:02.616Z,22.24
2022-07-30T23:23:33.885Z,22.29
2022-07-30T23:26:01.497Z,22.25
2022-07-30T23:28:27.965Z,22.24
2022-07-30T23:30:54.420Z,22.16
2022-07-30T23:33:20.952Z,22.14
2022-07-30T23:35:47.774Z,22.11
2022-07-30T23:38:14.397Z,22.09
2022-07-30T23:40:41.092Z,22.10
2022-07-30T23:43:07.548Z,22.14
2022-07-30T23:45:34.009Z,22.10
2022-07-30T23:48:03.341Z,22.16
2022-07-30T23:50:32.022Z,22.12
2022-07-30T23:52:58.607Z,22.08
2022-07-30T23:55:25.218Z,22.09
2022-07-30T23:57:51.708Z,21.97
